FW9014 Weather Reports


Display with metric or nautical units.
time (UTC)temp
F
wind
direction
speed
MPH
gust
MPH
rain 1hr
in
rain 24hr
in
rain mn
in
humidity
%
barometer
mb
20230128170048 55 176 9.0 12.0 0.02 0.03 0.03 92 1020.0
20230128164544 55 176 10.0 16.0 0.01 0.02 0.02 92 1020.3
20230128163051 55 182 10.0 16.0 0.02 0.02 0.02 91 1020.4
20230128161540 55 173 13.0 17.0 0.01 0.01 0.01 91 1020.4
20230128160053 55 175 13.0 18.0 0.01 0.01 0.01 89 1020.5
20230128154551 55 167 17.0 22.0 0.00 0.00 0.00 88 1020.3
20230128153040 55 168 17.0 23.0 0.00 0.00 0.00 87 1020.4
20230128151547 55 146 15.0 20.0 0.00 0.00 0.00 87 1020.2
20230128150056 55 169 12.0 16.0 0.00 0.00 0.00 87 1020.2
20230128144540 54 155 14.0 20.0 0.00 0.00 0.00 87 1020.0
20230128143044 54 163 14.0 20.0 0.00 0.00 0.00 86 1019.8
20230128141546 54 144 10.0 14.0 0.00 0.00 0.00 87 1020.0
20230128140050 54 166 9.0 13.0 0.00 0.00 0.00 86 1020.0
20230128134543 54 166 8.0 13.0 0.00 0.00 0.00 85 1019.9
20230128133101 54 121 7.0 14.0 0.00 0.00 0.00 85 1019.8
20230128131544 54 171 11.0 14.0 0.00 0.00 0.00 84 1020.2
20230128130047 54 178 10.0 14.0 0.00 0.00 0.00 83 1020.0
20230128124554 54 160 9.0 16.0 0.00 0.00 0.00 83 1019.8
20230128123046 54 153 10.0 16.0 0.00 0.00 0.00 82 1019.9
20230128121541 54 157 9.0 17.0 0.00 0.00 0.00 81 1020.1
20230128120048 54 156 10.0 17.0 0.00 0.00 0.00 81 1019.9
20230128114548 54 165 12.0 19.0 0.00 0.00 0.00 81 1019.8
20230128113044 54 165 13.0 18.0 0.00 0.00 0.00 80 1020.1
20230128111550 54 153 10.0 15.0 0.00 0.00 0.00 79 1020.2
20230128110044 54 156 9.0 18.0 0.00 0.00 0.00 79 1020.1
20230128104545 54 135 8.0 15.0 0.00 0.00 0.00 78 1020.4
20230128103057 54 163 10.0 17.0 0.00 0.00 0.00 80 1020.5
20230128101613 53 159 10.0 15.0 0.00 0.00 0.00 80 1020.9
20230128100048 53 160 11.0 17.0 0.00 0.00 0.00 80 1021.1
20230128094551 53 164 14.0 19.0 0.00 0.00 0.00 80 1021.0
20230128093041 53 167 13.0 19.0 0.00 0.00 0.00 80 1021.0
20230128091548 53 160 13.0 18.0 0.00 0.00 0.00 80 1021.1
20230128090045 53 161 12.0 18.0 0.00 0.00 0.00 80 1021.5
20230128084543 53 164 11.0 17.0 0.00 0.00 0.00 79 1021.8
20230128083050 53 157 14.0 19.0 0.00 0.00 0.00 79 1021.9
20230128081542 53 159 15.0 19.0 0.00 0.00 0.00 78 1022.1
20230128080048 53 166 14.0 18.0 0.00 0.00 0.00 78 1022.3
20230128074612 53 169 13.0 19.0 0.00 0.00 0.00 78 1022.5
20230128073042 53 167 13.0 18.0 0.00 0.00 0.00 78 1022.6
20230128071541 53 169 13.0 17.0 0.00 0.00 0.00 77 1022.6
20230128070048 53 168 15.0 19.0 0.00 0.00 0.00 77 1022.8
20230128064540 53 172 12.0 18.0 0.00 0.00 0.00 76 1022.9
20230128063042 53 155 14.0 19.0 0.00 0.00 0.00 76 1022.9
20230128061540 53 166 13.0 21.0 0.00 0.00 0.00 76 1023.1
20230128060050 53 155 14.0 19.0 0.00 0.00 0.00 76 1023.2
20230128054552 53 168 14.0 19.0 0.00 0.00 0.00 76 1023.3
20230128053048 53 168 12.0 16.0 0.00 0.00 0.00 75 1023.5
20230128051544 53 160 12.0 17.0 0.00 0.00 0.00 74 1023.6
20230128050056 53 169 12.0 16.0 0.00 0.00 0.00 74 1023.7
20230128044559 53 171 12.0 15.0 0.00 0.00 0.00 74 1023.9
20230128043051 53 181 12.0 15.0 0.00 0.00 0.00 74 1024.0
20230128041544 52 173 14.0 18.0 0.00 0.00 0.00 71 1023.8
20230128040059 52 164 14.0 18.0 0.00 0.00 0.00 71 1023.8
20230128034554 52 173 13.0 19.0 0.00 0.00 0.00 70 1024.0
20230128033053 52 174 14.0 19.0 0.00 0.00 0.00 68 1024.1
20230128031541 52 182 11.0 13.0 0.00 0.00 0.00 66 1024.4
20230128030047 52 178 11.0 14.0 0.00 0.00 0.00 66 1024.2
20230128024545 52 164 11.0 14.0 0.00 0.00 0.00 65 1024.3
20230128023046 52 165 10.0 12.0 0.00 0.00 0.00 64 1024.3
20230128021541 52 169 8.0 11.0 0.00 0.00 0.00 63 1024.6
20230128020045 52 167 8.0 10.0 0.00 0.00 0.00 61 1024.5
20230128014545 53 168 8.0 11.0 0.00 0.00 0.00 62 1024.6
20230128013049 53 180 9.0 12.0 0.00 0.00 0.00 58 1024.6
20230128011553 53 167 9.0 11.0 0.00 0.00 0.00 59 1024.5
20230128010058 53 165 7.0 11.0 0.00 0.00 0.00 61 1024.7
20230128004542 53 187 9.0 11.0 0.00 0.00 0.00 60 1024.4
20230128003057 54 196 10.0 13.0 0.00 0.00 0.00 59 1024.2
20230128001553 54 189 10.0 12.0 0.00 0.00 0.00 58 1024.1
20230128000056 54 195 10.0 12.0 0.00 0.00 0.00 58 1024.2
20230127234542 54 207 10.0 13.0 0.00 0.00 0.00 61 1024.3
20230127233053 54 201 11.0 13.0 0.00 0.00 0.00 58 1024.4
20230127231557 54 197 10.0 15.0 0.00 0.00 0.00 59 1024.5
20230127230054 54 196 12.0 15.0 0.00 0.00 0.00 58 1024.6
20230127224547 54 197 10.0 14.0 0.00 0.00 0.00 54 1024.7
20230127223046 54 201 12.0 14.0 0.00 0.00 0.00 54 1024.8
20230127221545 55 202 12.0 16.0 0.00 0.00 0.00 49 1024.9
20230127220047 54 204 12.0 14.0 0.00 0.00 0.00 51 1025.1
20230127214542 54 211 10.0 13.0 0.00 0.00 0.00 57 1025.1
20230127213046 54 208 9.0 12.0 0.00 0.00 0.00 57 1025.1
20230127211545 54 205 10.0 14.0 0.00 0.00 0.00 58 1025.2
20230127210052 54 204 12.0 14.0 0.00 0.00 0.00 55 1025.2
20230127204541 54 207 12.0 15.0 0.00 0.00 0.00 52 1025.2
20230127203052 54 201 11.0 14.0 0.00 0.00 0.00 49 1025.3
20230127201543 54 209 9.0 11.0 0.00 0.00 0.00 53 1025.4
20230127200046 54 219 10.0 15.0 0.00 0.00 0.00 46 1025.6
20230127194600 54 204 11.0 15.0 0.00 0.00 0.00 52 1025.7
20230127193047 54 209 12.0 15.0 0.00 0.00 0.00 55 1025.9
20230127191552 54 204 9.0 11.0 0.00 0.00 0.00 54 1026.2
20230127190049 54 165 1.0 4.0 0.00 0.00 0.00 49 1026.5
20230127184538 54 165 2.0 5.0 0.00 0.00 0.00 49 1026.8
20230127183045 53 163 5.0 7.0 0.00 0.00 0.00 52 1027.1
20230127181547 53 186 5.0 9.0 0.00 0.00 0.00 51 1027.4
20230127180055 53 200 9.0 12.0 0.00 0.00 0.00 54 1027.8
20230127174601 53 193 10.0 15.0 0.00 0.00 0.00 55 1027.9
20230127173050 52 193 9.0 12.0 0.00 0.00 0.00 62 1028.3
20230127171545 50 167 7.0 10.0 0.00 0.00 0.00 68 1028.6